createdAt,value
2022-11-05T00:00:37.829Z,3.17
2022-11-05T00:03:23.944Z,3.80
2022-11-05T00:06:11.951Z,3.50
2022-11-05T00:08:57.911Z,3.47
2022-11-05T00:11:44.665Z,3.07
2022-11-05T00:14:29.853Z,3.53
2022-11-05T00:16:56.676Z,2.80
2022-11-05T00:19:23.455Z,3.50
2022-11-05T00:22:09.210Z,2.70
2022-11-05T00:24:54.490Z,3.00
2022-11-05T00:27:21.328Z,3.10
2022-11-05T00:29:48.037Z,2.90
2022-11-05T00:32:14.674Z,2.70
2022-11-05T00:34:41.549Z,2.70
2022-11-05T00:37:08.274Z,2.73
2022-11-05T00:39:34.990Z,2.90
2022-11-05T00:42:20.185Z,2.77
2022-11-05T00:45:02.320Z,2.60
2022-11-05T00:47:51.293Z,3.53
2022-11-05T00:50:19.602Z,2.40
2022-11-05T00:52:56.858Z,2.00
2022-11-05T00:55:34.724Z,2.23
2022-11-05T00:58:03.327Z,2.77
2022-11-05T01:00:32.078Z,3.00
2022-11-05T01:03:00.645Z,2.40
2022-11-05T01:05:28.275Z,2.00
2022-11-05T01:07:55.309Z,2.50
2022-11-05T01:10:22.558Z,2.20
2022-11-05T01:12:49.579Z,1.87
2022-11-05T01:15:17.119Z,2.20
2022-11-05T01:17:43.859Z,2.23
2022-11-05T01:20:11.343Z,2.00
2022-11-05T01:22:38.043Z,2.00
2022-11-05T01:25:05.273Z,2.00
2022-11-05T01:27:31.942Z,2.07
2022-11-05T01:29:58.642Z,2.17
2022-11-05T01:32:25.328Z,1.80
2022-11-05T01:34:52.064Z,1.90
2022-11-05T01:37:18.753Z,1.90
2022-11-05T01:39:45.381Z,1.93
2022-11-05T01:42:23.019Z,1.90
2022-11-05T01:44:56.940Z,1.90
2022-11-05T01:48:07.076Z,1.90
2022-11-05T01:50:33.855Z,1.83
2022-11-05T01:53:03.734Z,1.87
2022-11-05T01:55:35.818Z,2.07
2022-11-05T01:58:03.285Z,1.90
2022-11-05T02:00:30.137Z,1.77
2022-11-05T02:02:57.541Z,1.63
2022-11-05T02:05:24.344Z,1.43
2022-11-05T02:07:51.286Z,1.70
2022-11-05T02:10:18.657Z,1.80
2022-11-05T02:12:47.754Z,1.70
2022-11-05T02:15:17.863Z,1.70
2022-11-05T02:17:59.792Z,1.90
2022-11-05T02:20:40.539Z,1.60
2022-11-05T02:23:41.463Z,2.00
2022-11-05T02:26:28.743Z,1.80
2022-11-05T02:29:04.634Z,1.50
2022-11-05T02:31:49.010Z,2.37
2022-11-05T02:34:22.653Z,1.50
2022-11-05T02:37:12.784Z,1.80
2022-11-05T02:39:47.480Z,1.30
2022-11-05T02:42:32.791Z,1.60
2022-11-05T02:45:26.068Z,1.60
2022-11-05T02:48:16.378Z,1.37
2022-11-05T02:50:58.519Z,1.60
2022-11-05T02:53:43.836Z,1.50
2022-11-05T02:56:19.410Z,1.70
2022-11-05T02:58:46.218Z,1.43
2022-11-05T03:01:13.102Z,1.93
2022-11-05T03:03:40.812Z,1.80
2022-11-05T03:06:22.522Z,1.30
2022-11-05T03:08:54.760Z,1.53
2022-11-05T03:11:29.707Z,1.50
2022-11-05T03:14:53.825Z,3.10
2022-11-05T03:17:23.207Z,1.90
2022-11-05T03:20:08.664Z,1.70
2022-11-05T03:22:40.825Z,1.50
2022-11-05T03:25:12.872Z,1.80
2022-11-05T03:27:42.466Z,1.67
2022-11-05T03:30:11.336Z,1.77
2022-11-05T03:32:42.016Z,1.60
2022-11-05T03:35:19.897Z,1.40
2022-11-05T03:37:47.552Z,1.70
2022-11-05T03:40:15.550Z,1.73
2022-11-05T03:42:45.246Z,1.67
2022-11-05T03:45:25.488Z,1.60
2022-11-05T03:47:53.665Z,1.77
2022-11-05T03:50:41.399Z,1.47
2022-11-05T03:53:18.640Z,1.20
2022-11-05T03:56:06.054Z,1.80
2022-11-05T03:58:32.877Z,1.50
2022-11-05T04:01:01.279Z,1.60
2022-11-05T04:03:28.239Z,1.73
2022-11-05T04:06:14.929Z,1.50
2022-11-05T04:09:00.493Z,1.60
2022-11-05T04:11:45.937Z,1.50
2022-11-05T04:14:12.646Z,1.83
2022-11-05T04:16:57.927Z,1.90
2022-11-05T04:19:43.404Z,1.83
2022-11-05T04:22:28.552Z,1.90
2022-11-05T04:24:55.323Z,1.80
2022-11-05T04:27:22.177Z,1.97
2022-11-05T04:30:07.775Z,1.97
2022-11-05T04:32:34.484Z,1.90
2022-11-05T04:35:01.305Z,2.00
2022-11-05T04:37:27.973Z,2.10
2022-11-05T04:39:54.707Z,2.00
2022-11-05T04:42:21.518Z,2.30
2022-11-05T04:44:48.269Z,2.20
2022-11-05T04:47:15.006Z,2.20
2022-11-05T04:49:41.983Z,2.50
2022-11-05T04:52:09.031Z,2.37
2022-11-05T04:54:35.820Z,2.60
2022-11-05T04:57:02.467Z,2.67
2022-11-05T04:59:29.172Z,2.47
2022-11-05T05:01:55.935Z,2.30
2022-11-05T05:04:22.738Z,2.30
2022-11-05T05:06:49.409Z,2.23
2022-11-05T05:09:16.201Z,2.40
2022-11-05T05:11:42.869Z,2.73
2022-11-05T05:14:09.644Z,2.77
2022-11-05T05:16:36.365Z,3.00
2022-11-05T05:19:03.118Z,2.60
2022-11-05T05:21:38.599Z,3.00
2022-11-05T05:24:08.821Z,2.90
2022-11-05T05:26:37.029Z,3.30
2022-11-05T05:29:04.841Z,3.30
2022-11-05T05:31:31.695Z,3.30
2022-11-05T05:33:58.600Z,3.47
2022-11-05T05:36:25.387Z,3.07
2022-11-05T05:38:52.104Z,3.10
2022-11-05T05:41:19.401Z,3.30
2022-11-05T05:43:46.166Z,3.73
2022-11-05T05:46:14.812Z,3.57
2022-11-05T05:48:42.575Z,3.93
2022-11-05T05:51:11.295Z,3.80
2022-11-05T05:53:38.051Z,3.87
2022-11-05T05:56:05.573Z,4.23
2022-11-05T05:58:35.428Z,3.90
2022-11-05T06:01:08.254Z,4.47
2022-11-05T06:03:35.449Z,4.33
2022-11-05T06:06:03.999Z,4.03
2022-11-05T06:08:31.111Z,4.90
2022-11-05T06:10:58.434Z,4.53
2022-11-05T06:13:26.026Z,4.80
2022-11-05T06:15:52.828Z,5.00
2022-11-05T06:18:19.752Z,4.83
2022-11-05T06:20:46.491Z,5.00
2022-11-05T06:23:13.561Z,5.33
2022-11-05T06:25:41.550Z,5.57
2022-11-05T06:28:08.561Z,5.50
2022-11-05T06:30:35.321Z,5.20
2022-11-05T06:33:03.849Z,5.30
2022-11-05T06:35:30.868Z,5.60
2022-11-05T06:38:01.522Z,5.80
2022-11-05T06:40:29.139Z,6.57
2022-11-05T06:42:55.964Z,6.23
2022-11-05T06:45:22.977Z,6.03
2022-11-05T06:47:58.518Z,6.30
2022-11-05T06:50:26.531Z,6.40
2022-11-05T06:53:01.350Z,7.67
2022-11-05T06:55:29.443Z,6.17
2022-11-05T06:57:57.147Z,6.47
2022-11-05T07:00:24.517Z,6.77
2022-11-05T07:02:51.322Z,7.07
2022-11-05T07:05:18.064Z,7.07
2022-11-05T07:07:45.555Z,6.60
2022-11-05T07:10:15.801Z,7.10
2022-11-05T07:12:42.899Z,6.30
2022-11-05T07:15:11.390Z,7.87
2022-11-05T07:17:39.160Z,7.70
2022-11-05T07:20:07.009Z,7.57
2022-11-05T07:22:34.596Z,7.33
2022-11-05T07:25:01.406Z,7.30
2022-11-05T07:27:28.135Z,7.83
2022-11-05T07:29:54.847Z,7.27
2022-11-05T07:32:21.684Z,8.20
2022-11-05T07:34:48.411Z,7.87
2022-11-05T07:37:16.717Z,8.07
2022-11-05T07:39:43.558Z,7.80
2022-11-05T07:42:13.806Z,6.90
2022-11-05T07:44:40.735Z,7.30
2022-11-05T07:47:07.786Z,7.53
2022-11-05T07:49:34.490Z,7.40
2022-11-05T07:52:01.138Z,6.77
2022-11-05T07:54:28.131Z,8.67
2022-11-05T07:56:54.893Z,8.03
2022-11-05T07:59:21.683Z,7.07
2022-11-05T08:01:48.600Z,7.50
2022-11-05T08:04:15.406Z,7.53
2022-11-05T08:06:42.312Z,7.73
2022-11-05T08:09:09.901Z,8.80
2022-11-05T08:11:36.763Z,8.53
2022-11-05T08:14:03.519Z,7.77
2022-11-05T08:16:30.392Z,8.23
2022-11-05T08:18:57.165Z,8.90
2022-11-05T08:21:23.823Z,7.63
2022-11-05T08:23:50.718Z,7.53
2022-11-05T08:26:17.528Z,6.87
2022-11-05T08:28:44.326Z,7.00
2022-11-05T08:31:11.202Z,6.67
2022-11-05T08:33:38.154Z,6.10
2022-11-05T08:36:05.237Z,6.10
2022-11-05T08:38:32.230Z,5.67
2022-11-05T08:40:59.178Z,5.50
2022-11-05T08:43:26.526Z,5.40
2022-11-05T08:45:55.010Z,5.13
2022-11-05T08:48:21.947Z,4.70
2022-11-05T08:50:49.855Z,4.70
2022-11-05T08:53:17.057Z,4.03
2022-11-05T08:55:44.307Z,4.13
2022-11-05T08:58:15.074Z,3.80
2022-11-05T09:00:43.024Z,3.53
2022-11-05T09:03:10.310Z,3.70
2022-11-05T09:05:39.423Z,3.07
2022-11-05T09:08:07.232Z,3.50
2022-11-05T09:10:34.553Z,3.23
2022-11-05T09:13:01.624Z,3.50
2022-11-05T09:15:29.469Z,3.53
2022-11-05T09:17:56.515Z,3.40
2022-11-05T09:20:23.991Z,3.63
2022-11-05T09:22:51.701Z,3.00
2022-11-05T09:25:18.599Z,3.00
2022-11-05T09:27:45.557Z,4.67
2022-11-05T09:30:13.605Z,3.33
2022-11-05T09:32:41.207Z,3.50
2022-11-05T09:35:08.917Z,3.43
2022-11-05T09:37:37.248Z,3.33
2022-11-05T09:40:04.412Z,3.43
2022-11-05T09:42:41.272Z,3.63
2022-11-05T09:45:16.618Z,3.87
2022-11-05T09:47:49.462Z,3.80
2022-11-05T09:50:33.145Z,4.03
2022-11-05T09:53:00.777Z,4.23
2022-11-05T09:55:32.613Z,3.83
2022-11-05T09:58:01.682Z,4.30
2022-11-05T10:00:29.652Z,4.60
2022-11-05T10:03:04.384Z,6.40
2022-11-05T10:05:33.023Z,4.20
2022-11-05T10:08:04.808Z,4.40
2022-11-05T10:10:41.034Z,4.67
2022-11-05T10:13:25.806Z,5.40
2022-11-05T10:16:21.723Z,18.00
2022-11-05T10:18:56.659Z,9.10
2022-11-05T10:21:44.337Z,10.77
2022-11-05T10:24:18.536Z,7.20
2022-11-05T10:26:48.632Z,7.50
2022-11-05T10:29:22.736Z,6.60
2022-11-05T10:31:49.619Z,6.57
2022-11-05T10:34:17.807Z,8.10
2022-11-05T10:36:44.467Z,6.33
2022-11-05T10:39:19.272Z,7.00
2022-11-05T10:42:10.775Z,6.20
2022-11-05T10:45:09.064Z,6.63
2022-11-05T10:47:35.711Z,5.80
2022-11-05T10:50:05.456Z,6.37
2022-11-05T10:52:34.105Z,6.13
2022-11-05T10:55:15.223Z,5.50
2022-11-05T10:57:42.447Z,6.37
2022-11-05T11:00:21.924Z,5.73
2022-11-05T11:03:28.803Z,6.20
2022-11-05T11:06:03.923Z,6.03
2022-11-05T11:08:33.812Z,6.67
2022-11-05T11:11:05.598Z,5.83
2022-11-05T11:13:57.978Z,5.97
2022-11-05T11:16:27.613Z,6.57
2022-11-05T11:18:56.791Z,7.13
2022-11-05T11:21:23.967Z,5.90
2022-11-05T11:23:56.232Z,5.93
2022-11-05T11:26:24.882Z,7.90
2022-11-05T11:29:13.031Z,5.73
2022-11-05T11:31:40.540Z,5.73
2022-11-05T11:34:25.805Z,6.10
2022-11-05T11:36:55.741Z,5.67
2022-11-05T11:39:25.824Z,6.27
2022-11-05T11:41:59.058Z,5.37
2022-11-05T11:44:29.572Z,5.70
2022-11-05T11:47:12.796Z,5.80
2022-11-05T11:49:46.227Z,6.07
2022-11-05T11:52:17.213Z,6.20
2022-11-05T11:54:43.923Z,6.13
2022-11-05T11:57:22.589Z,5.57
2022-11-05T12:03:01.580Z,5.63
2022-11-05T12:05:46.122Z,5.67
2022-11-05T12:08:22.936Z,6.10
2022-11-05T12:11:08.367Z,5.47
2022-11-05T12:13:59.457Z,5.30
2022-11-05T12:16:45.725Z,5.50
2022-11-05T12:19:22.440Z,5.40
2022-11-05T12:21:53.141Z,5.53
2022-11-05T12:24:57.904Z,5.37
2022-11-05T12:27:54.060Z,5.47
2022-11-05T12:30:21.881Z,4.80
2022-11-05T12:33:03.836Z,6.40
2022-11-05T12:35:58.206Z,5.63
2022-11-05T12:38:30.514Z,4.90
2022-11-05T12:41:05.909Z,4.60
2022-11-05T12:43:50.861Z,5.07
2022-11-05T12:46:39.908Z,4.50
2022-11-05T12:49:24.527Z,4.27
2022-11-05T12:52:20.073Z,4.30
2022-11-05T12:54:59.846Z,4.37
2022-11-05T12:57:28.199Z,4.33
2022-11-05T13:00:29.629Z,4.20
2022-11-05T13:03:38.717Z,4.13
2022-11-05T13:06:13.600Z,3.73
2022-11-05T13:08:51.435Z,3.93
2022-11-05T13:11:27.407Z,4.03
2022-11-05T13:13:58.242Z,4.00
2022-11-05T13:16:48.047Z,5.27
2022-11-05T13:19:23.063Z,4.00
2022-11-05T13:22:16.315Z,5.70
2022-11-05T13:24:50.261Z,3.60
2022-11-05T13:27:49.211Z,3.63
2022-11-05T13:30:20.215Z,3.50
2022-11-05T13:32:53.268Z,3.47
2022-11-05T13:35:28.044Z,3.73
2022-11-05T13:38:19.807Z,4.83
2022-11-05T13:41:15.482Z,3.10
2022-11-05T13:44:19.963Z,3.70
2022-11-05T13:47:17.260Z,3.50
2022-11-05T13:50:09.944Z,3.30
2022-11-05T13:52:42.418Z,3.30
2022-11-05T13:55:12.668Z,3.37
2022-11-05T13:58:02.750Z,3.70
2022-11-05T14:00:33.172Z,4.37
2022-11-05T14:03:04.171Z,2.90
2022-11-05T14:05:36.314Z,3.13
2022-11-05T14:08:17.782Z,3.37
2022-11-05T14:10:47.182Z,3.47
2022-11-05T14:13:26.458Z,3.30
2022-11-05T14:16:06.272Z,3.20
2022-11-05T14:18:47.749Z,3.20
2022-11-05T14:21:26.636Z,3.17
2022-11-05T14:23:55.077Z,3.50
2022-11-05T14:26:26.694Z,4.57
2022-11-05T14:29:05.706Z,3.20
2022-11-05T14:32:08.378Z,3.80
2022-11-05T14:34:44.208Z,4.03
2022-11-05T14:37:10.833Z,3.40
2022-11-05T14:39:37.951Z,3.37
2022-11-05T14:42:15.091Z,3.80
2022-11-05T14:44:59.548Z,3.37
2022-11-05T14:47:30.632Z,3.20
2022-11-05T14:50:11.589Z,3.20
2022-11-05T14:52:39.168Z,3.20
2022-11-05T14:55:06.513Z,2.83
2022-11-05T14:57:42.506Z,3.77
2022-11-05T15:00:36.564Z,3.60
2022-11-05T15:03:25.376Z,3.23
2022-11-05T15:05:56.639Z,2.73
2022-11-05T15:08:36.301Z,3.07
2022-11-05T15:11:32.843Z,3.43
2022-11-05T15:14:13.517Z,2.93
2022-11-05T15:16:45.108Z,3.30
2022-11-05T15:19:31.977Z,3.73
2022-11-05T15:22:03.804Z,3.10
2022-11-05T15:24:31.193Z,3.53
2022-11-05T15:27:13.906Z,3.67
2022-11-05T15:29:40.715Z,3.20
2022-11-05T15:32:18.452Z,3.10
2022-11-05T15:34:53.262Z,3.23
2022-11-05T15:37:25.008Z,3.27
2022-11-05T15:39:53.819Z,2.87
2022-11-05T15:42:25.329Z,3.40
2022-11-05T15:44:59.252Z,3.30
2022-11-05T15:47:31.270Z,3.33
2022-11-05T15:50:01.226Z,4.17
2022-11-05T15:52:42.194Z,3.03
2022-11-05T15:55:12.055Z,3.13
2022-11-05T15:58:06.762Z,2.90
2022-11-05T16:00:35.509Z,3.13
2022-11-05T16:03:05.111Z,5.30
2022-11-05T16:05:34.229Z,3.53
2022-11-05T16:08:02.186Z,3.63
2022-11-05T16:10:34.069Z,3.03
2022-11-05T16:13:26.576Z,3.50
2022-11-05T16:15:58.415Z,3.43
2022-11-05T16:18:31.199Z,3.23
2022-11-05T16:21:24.243Z,3.10
2022-11-05T16:23:59.004Z,2.83
2022-11-05T16:27:00.664Z,3.27
2022-11-05T16:29:30.326Z,2.80
2022-11-05T16:31:58.002Z,2.97
2022-11-05T16:34:32.541Z,3.63
2022-11-05T16:36:59.700Z,3.07
2022-11-05T16:39:26.657Z,2.80
2022-11-05T16:41:53.309Z,3.20
2022-11-05T16:44:20.008Z,4.37
2022-11-05T16:46:48.434Z,2.73
2022-11-05T16:49:15.579Z,2.77
2022-11-05T16:51:42.827Z,2.70
2022-11-05T16:54:09.712Z,2.80
2022-11-05T16:56:36.809Z,3.33
2022-11-05T16:59:04.178Z,3.30
2022-11-05T17:01:31.001Z,4.00
2022-11-05T17:03:57.762Z,5.00
2022-11-05T17:06:24.385Z,4.93
2022-11-05T17:08:51.035Z,5.13
2022-11-05T17:11:19.784Z,4.90
2022-11-05T17:13:46.869Z,5.10
2022-11-05T17:16:16.005Z,4.53
2022-11-05T17:18:43.395Z,5.43
2022-11-05T17:21:10.921Z,4.50
2022-11-05T17:23:38.006Z,4.43
2022-11-05T17:26:07.682Z,4.47
2022-11-05T17:28:34.975Z,4.30
2022-11-05T17:31:03.669Z,4.60
2022-11-05T17:33:30.617Z,4.20
2022-11-05T17:35:57.488Z,4.43
2022-11-05T17:38:25.421Z,4.20
2022-11-05T17:40:52.861Z,4.77
2022-11-05T17:43:20.309Z,4.30
2022-11-05T17:45:51.941Z,4.30
2022-11-05T17:48:20.051Z,4.73
2022-11-05T17:50:49.180Z,4.50
2022-11-05T17:53:17.478Z,4.20
2022-11-05T17:55:45.358Z,6.17
2022-11-05T17:58:12.589Z,5.07
2022-11-05T18:00:40.257Z,4.30
2022-11-05T18:03:07.070Z,4.27
2022-11-05T18:05:34.630Z,4.53
2022-11-05T18:08:01.647Z,4.77
2022-11-05T18:10:28.285Z,5.60
2022-11-05T18:12:55.029Z,5.93
2022-11-05T18:15:21.817Z,4.70
2022-11-05T18:17:48.572Z,5.33
2022-11-05T18:20:19.091Z,6.83
2022-11-05T18:22:48.483Z,7.87
2022-11-05T18:25:15.171Z,8.77
2022-11-05T18:27:41.973Z,8.33
2022-11-05T18:30:10.075Z,9.40
2022-11-05T18:32:36.850Z,9.50
2022-11-05T18:35:03.928Z,8.93
2022-11-05T18:37:30.632Z,10.27
2022-11-05T18:39:57.278Z,8.87
2022-11-05T18:42:25.252Z,9.43
2022-11-05T18:44:51.980Z,10.10
2022-11-05T18:47:18.617Z,11.00
2022-11-05T18:49:45.252Z,13.57
2022-11-05T18:52:12.083Z,13.07
2022-11-05T18:54:38.840Z,11.80
2022-11-05T18:57:05.456Z,11.60
2022-11-05T18:59:38.260Z,11.13
2022-11-05T19:02:06.424Z,10.53
2022-11-05T19:04:35.552Z,11.57
2022-11-05T19:07:05.135Z,13.37
2022-11-05T19:09:34.056Z,11.83
2022-11-05T19:12:01.297Z,9.73
2022-11-05T19:14:28.059Z,10.03
2022-11-05T19:16:54.794Z,10.40
2022-11-05T19:19:21.551Z,11.17
2022-11-05T19:21:48.175Z,9.70
2022-11-05T19:24:17.754Z,11.83
2022-11-05T19:26:44.707Z,10.90
2022-11-05T19:29:11.493Z,10.37
2022-11-05T19:31:38.582Z,10.47
2022-11-05T19:34:05.635Z,11.63
2022-11-05T19:36:33.545Z,10.37
2022-11-05T19:39:06.268Z,13.53
2022-11-05T19:41:33.121Z,11.17
2022-11-05T19:44:01.525Z,11.30
2022-11-05T19:46:29.090Z,10.53
2022-11-05T19:48:55.796Z,12.00
2022-11-05T19:51:24.998Z,12.10
2022-11-05T19:53:52.844Z,11.53
2022-11-05T19:56:21.926Z,12.23
2022-11-05T19:58:49.027Z,11.23
2022-11-05T20:01:17.166Z,12.33
2022-11-05T20:03:44.488Z,12.53
2022-11-05T20:06:14.334Z,11.80
2022-11-05T20:09:06.708Z,11.43
2022-11-05T20:11:30.220Z,14.10
2022-11-05T20:13:57.512Z,12.23
2022-11-05T20:16:29.473Z,14.37
2022-11-05T20:18:57.425Z,11.40
2022-11-05T20:21:24.242Z,10.60
2022-11-05T20:23:50.906Z,13.50
2022-11-05T20:26:17.606Z,14.93
2022-11-05T20:28:44.370Z,12.73
2022-11-05T20:31:13.235Z,12.20
2022-11-05T20:33:40.716Z,12.87
2022-11-05T20:36:10.932Z,9.93
2022-11-05T20:38:37.597Z,11.27
2022-11-05T20:41:12.367Z,12.13
2022-11-05T20:43:40.991Z,10.30
2022-11-05T20:46:09.096Z,11.97
2022-11-05T20:48:36.411Z,9.90
2022-11-05T20:51:08.053Z,9.13
2022-11-05T20:53:35.290Z,12.03
2022-11-05T20:56:07.681Z,11.13
2022-11-05T20:58:36.221Z,10.47
2022-11-05T21:01:04.561Z,9.50
2022-11-05T21:03:31.297Z,11.60
2022-11-05T21:06:00.922Z,10.20
2022-11-05T21:08:28.112Z,11.00
2022-11-05T21:10:55.886Z,10.67
2022-11-05T21:13:23.740Z,10.20
2022-11-05T21:15:55.899Z,9.70
2022-11-05T21:18:27.607Z,9.17
2022-11-05T21:20:54.385Z,9.60
2022-11-05T21:23:21.115Z,9.40
2022-11-05T21:25:48.016Z,9.77
2022-11-05T21:28:15.519Z,8.90
2022-11-05T21:30:47.594Z,9.60
2022-11-05T21:33:15.348Z,10.37
2022-11-05T21:35:46.452Z,10.00
2022-11-05T21:38:15.689Z,8.67
2022-11-05T21:40:42.894Z,10.20
2022-11-05T21:43:10.045Z,11.77
2022-11-05T21:45:40.930Z,10.47
2022-11-05T21:48:08.705Z,10.67
2022-11-05T21:50:57.150Z,11.97
2022-11-05T21:53:42.537Z,12.33
2022-11-05T21:56:43.788Z,12.97
2022-11-05T21:59:34.485Z,13.23
2022-11-05T22:02:01.835Z,14.40
2022-11-05T22:04:38.207Z,15.97
2022-11-05T22:07:05.973Z,14.90
2022-11-05T22:09:32.739Z,14.83
2022-11-05T22:11:59.894Z,16.13
2022-11-05T22:14:27.080Z,16.00
2022-11-05T22:16:54.296Z,16.37
2022-11-05T22:19:22.829Z,16.07
2022-11-05T22:21:49.645Z,15.30
2022-11-05T22:24:16.390Z,16.27
2022-11-05T22:26:44.309Z,15.10
2022-11-05T22:29:11.688Z,14.70
2022-11-05T22:31:38.373Z,13.60
2022-11-05T22:34:06.471Z,13.77
2022-11-05T22:36:34.325Z,13.63
2022-11-05T22:39:01.625Z,13.00
2022-11-05T22:41:28.489Z,13.67
2022-11-05T22:43:55.846Z,13.93
2022-11-05T22:46:24.673Z,11.60
2022-11-05T22:48:51.648Z,12.63
2022-11-05T22:51:26.480Z,12.20
2022-11-05T22:53:54.693Z,11.03
2022-11-05T22:56:23.482Z,10.67
2022-11-05T22:58:50.404Z,10.37
2022-11-05T23:01:17.681Z,10.70
2022-11-05T23:03:46.201Z,11.77
2022-11-05T23:06:36.985Z,10.80
2022-11-05T23:09:24.709Z,9.73
2022-11-05T23:11:53.623Z,9.57
2022-11-05T23:14:20.624Z,10.33
2022-11-05T23:17:05.913Z,10.17
2022-11-05T23:19:51.529Z,9.23
2022-11-05T23:22:39.272Z,11.60
2022-11-05T23:25:07.750Z,9.60
2022-11-05T23:27:36.326Z,9.70
2022-11-05T23:30:11.088Z,10.50
2022-11-05T23:32:37.741Z,10.53
2022-11-05T23:35:05.447Z,9.10
2022-11-05T23:37:51.204Z,9.77
2022-11-05T23:40:23.826Z,8.80
2022-11-05T23:43:12.135Z,10.43
2022-11-05T23:45:55.253Z,8.80
2022-11-05T23:48:32.239Z,9.50
2022-11-05T23:51:00.780Z,10.17
2022-11-05T23:53:30.978Z,8.73
2022-11-05T23:56:16.161Z,8.73
2022-11-05T23:58:46.154Z,9.77
